createdAt,value
2023-04-30T00:02:28.653Z,54.85
2023-04-30T00:05:02.328Z,55.06
2023-04-30T00:07:35.166Z,55.11
2023-04-30T00:10:09.796Z,55.12
2023-04-30T00:12:42.806Z,55.38
2023-04-30T00:15:17.159Z,55.33
2023-04-30T00:17:49.928Z,55.41
2023-04-30T00:20:22.684Z,55.27
2023-04-30T00:22:55.782Z,55.25
2023-04-30T00:25:28.670Z,55.69
2023-04-30T00:28:01.306Z,55.91
2023-04-30T00:30:35.499Z,55.56
2023-04-30T00:33:11.311Z,55.85
2023-04-30T00:35:44.154Z,55.66
2023-04-30T00:38:17.158Z,55.65
2023-04-30T00:40:50.586Z,55.68
2023-04-30T00:43:25.072Z,56.29
2023-04-30T00:45:59.833Z,55.57
2023-04-30T00:48:32.664Z,55.76
2023-04-30T00:51:07.762Z,55.85
2023-04-30T00:53:41.560Z,55.91
2023-04-30T00:56:16.562Z,55.83
2023-04-30T00:58:51.508Z,56.10
2023-04-30T01:01:26.065Z,56.08
2023-04-30T01:03:59.411Z,55.81
2023-04-30T01:06:32.769Z,55.76
2023-04-30T01:09:05.676Z,55.81
2023-04-30T01:17:48.949Z,55.69
2023-04-30T01:20:22.185Z,55.94
2023-04-30T01:22:58.931Z,55.68
2023-04-30T01:25:43.476Z,56.14
2023-04-30T01:28:20.711Z,56.26
2023-04-30T01:30:54.102Z,55.90
2023-04-30T01:33:27.159Z,56.19
2023-04-30T01:36:19.696Z,55.85
2023-04-30T01:39:08.523Z,55.99
2023-04-30T01:41:51.657Z,56.48
2023-04-30T01:44:37.789Z,56.16
2023-04-30T01:47:17.427Z,56.52
2023-04-30T01:49:58.980Z,56.30
2023-04-30T01:52:40.987Z,56.47
2023-04-30T01:55:19.279Z,56.58
2023-04-30T01:57:59.091Z,56.51
2023-04-30T02:00:35.402Z,56.59
2023-04-30T02:03:15.293Z,56.58
2023-04-30T02:05:49.780Z,56.38
2023-04-30T02:08:22.676Z,56.43
2023-04-30T02:10:55.769Z,56.43
2023-04-30T02:13:28.452Z,56.53
2023-04-30T02:16:02.557Z,56.78
2023-04-30T02:18:35.344Z,56.62
2023-04-30T02:21:08.208Z,56.87
2023-04-30T02:23:41.672Z,56.39
2023-04-30T02:26:14.599Z,56.44
2023-04-30T02:28:47.316Z,56.71
2023-04-30T02:31:21.486Z,56.49
2023-04-30T02:33:54.407Z,56.85
2023-04-30T02:36:27.844Z,56.83
2023-04-30T02:39:00.630Z,56.55
2023-04-30T02:41:33.430Z,57.05
2023-04-30T02:44:06.423Z,57.10
2023-04-30T02:46:41.177Z,57.09
2023-04-30T02:49:13.958Z,56.88
2023-04-30T02:51:46.748Z,57.19
2023-04-30T02:54:19.748Z,57.16
2023-04-30T02:56:52.902Z,57.00
2023-04-30T02:59:25.551Z,57.02
2023-04-30T03:01:59.813Z,57.15
2023-04-30T03:04:33.176Z,57.20
2023-04-30T03:07:06.911Z,57.08
2023-04-30T03:09:40.934Z,56.97
2023-04-30T03:12:14.641Z,57.06
2023-04-30T03:14:47.498Z,57.01
2023-04-30T03:17:21.692Z,57.29
2023-04-30T03:19:55.920Z,57.48
2023-04-30T03:22:28.961Z,57.31
2023-04-30T03:25:01.809Z,57.22
2023-04-30T03:27:34.484Z,57.45
2023-04-30T03:30:08.845Z,57.31
2023-04-30T03:32:43.179Z,57.61
2023-04-30T03:35:16.479Z,57.32
2023-04-30T03:37:49.525Z,57.68
2023-04-30T03:40:22.381Z,57.69
2023-04-30T03:42:55.455Z,57.30
2023-04-30T03:45:28.403Z,57.41
2023-04-30T03:48:02.567Z,57.69
2023-04-30T03:50:35.698Z,57.39
2023-04-30T03:53:08.659Z,57.63
2023-04-30T03:55:41.398Z,57.69
2023-04-30T03:58:14.387Z,57.60
2023-04-30T04:00:48.320Z,57.36
2023-04-30T04:03:23.353Z,57.73
2023-04-30T04:05:56.280Z,57.31
2023-04-30T04:08:30.124Z,57.51
2023-04-30T04:11:03.095Z,57.76
2023-04-30T04:13:36.077Z,57.74
2023-04-30T04:16:09.788Z,57.61
2023-04-30T04:18:44.599Z,57.73
2023-04-30T04:21:17.917Z,58.27
2023-04-30T04:23:51.875Z,58.31
2023-04-30T04:26:25.985Z,57.66
2023-04-30T04:28:58.820Z,57.80
2023-04-30T04:31:31.630Z,57.85
2023-04-30T04:34:06.822Z,57.93
2023-04-30T04:36:39.576Z,58.25
2023-04-30T04:39:13.497Z,57.65
2023-04-30T04:41:46.411Z,57.93
2023-04-30T04:44:19.636Z,57.75
2023-04-30T04:46:54.021Z,57.86
2023-04-30T04:49:28.724Z,57.69
2023-04-30T04:52:02.001Z,57.59
2023-04-30T04:54:35.212Z,57.66
2023-04-30T04:57:08.410Z,58.11
2023-04-30T04:59:41.011Z,58.09
2023-04-30T05:02:13.953Z,58.03
2023-04-30T05:04:50.453Z,58.00
2023-04-30T05:07:25.140Z,57.93
2023-04-30T05:09:59.145Z,57.87
2023-04-30T05:12:32.150Z,57.79
2023-04-30T05:15:06.736Z,58.17
2023-04-30T05:17:39.615Z,57.59
2023-04-30T05:20:14.563Z,57.87
2023-04-30T05:22:47.373Z,57.92
2023-04-30T05:25:20.392Z,57.99
2023-04-30T05:27:53.448Z,57.71
2023-04-30T05:30:26.772Z,57.78
2023-04-30T05:32:59.893Z,58.04
2023-04-30T05:35:36.211Z,57.79
2023-04-30T05:38:09.295Z,57.85
2023-04-30T05:40:42.617Z,57.84
2023-04-30T05:43:15.884Z,58.30
2023-04-30T05:45:49.684Z,57.65
2023-04-30T05:48:31.763Z,57.88
2023-04-30T05:51:06.790Z,57.69
2023-04-30T05:53:39.899Z,58.13
2023-04-30T05:56:13.431Z,58.30
2023-04-30T05:58:46.553Z,58.09
2023-04-30T06:01:21.201Z,58.25
2023-04-30T06:03:54.059Z,58.19
2023-04-30T06:06:28.907Z,58.59
2023-04-30T06:09:01.864Z,58.79
2023-04-30T06:11:34.793Z,58.47
2023-04-30T06:14:07.646Z,58.94
2023-04-30T06:16:40.669Z,58.61
2023-04-30T06:19:13.817Z,58.80
2023-04-30T06:21:48.173Z,57.87
2023-04-30T06:24:21.062Z,58.31
2023-04-30T06:26:53.937Z,59.37
2023-04-30T06:29:26.989Z,58.68
2023-04-30T06:32:26.103Z,59.16
2023-04-30T06:35:05.728Z,58.32
2023-04-30T06:37:40.473Z,58.60
2023-04-30T06:40:15.878Z,58.71
2023-04-30T06:42:57.920Z,58.45
2023-04-30T06:45:38.129Z,58.87
2023-04-30T06:48:26.237Z,58.28
2023-04-30T07:10:47.030Z,58.54
2023-04-30T07:13:20.193Z,58.39
2023-04-30T07:15:55.169Z,57.52
2023-04-30T07:18:28.353Z,58.68
2023-04-30T07:21:19.786Z,60.04
2023-04-30T07:24:12.120Z,59.74
2023-04-30T07:26:49.760Z,59.56
2023-04-30T07:29:29.456Z,59.37
2023-04-30T07:32:20.634Z,60.18
2023-04-30T07:35:27.356Z,58.77
2023-04-30T07:38:13.255Z,59.70
2023-04-30T07:40:57.765Z,60.37
2023-04-30T07:43:35.408Z,57.75
2023-04-30T07:46:14.061Z,60.06
2023-04-30T07:48:47.035Z,60.74
2023-04-30T07:51:19.833Z,59.83
2023-04-30T07:53:53.306Z,60.62
2023-04-30T07:56:26.569Z,60.21
2023-04-30T07:59:00.807Z,59.05
2023-04-30T08:01:33.659Z,61.09
2023-04-30T08:04:07.841Z,60.07
2023-04-30T08:06:42.015Z,55.98
2023-04-30T08:28:32.469Z,54.75
2023-04-30T08:31:05.615Z,56.71
2023-04-30T08:33:38.373Z,57.70
2023-04-30T08:36:11.289Z,55.67
2023-04-30T08:38:43.874Z,55.43
2023-04-30T08:41:16.885Z,55.53
2023-04-30T08:43:54.422Z,52.16
2023-04-30T08:46:28.300Z,56.41
2023-04-30T08:49:01.626Z,52.00
2023-04-30T08:51:35.459Z,55.39
2023-04-30T08:54:12.328Z,50.71
2023-04-30T08:56:46.618Z,52.01
2023-04-30T08:59:20.810Z,51.32
2023-04-30T09:01:54.928Z,52.62
2023-04-30T09:04:28.004Z,50.48
2023-04-30T09:07:04.533Z,53.58
2023-04-30T09:09:40.776Z,53.59
2023-04-30T09:12:18.479Z,51.60
2023-04-30T09:15:04.705Z,50.96
2023-04-30T09:17:37.572Z,48.29
2023-04-30T09:20:11.694Z,51.53
2023-04-30T09:22:45.608Z,50.80
2023-04-30T09:25:20.204Z,52.85
2023-04-30T09:28:08.565Z,48.48
2023-04-30T09:30:43.919Z,48.14
2023-04-30T09:33:16.817Z,44.67
2023-04-30T09:35:49.837Z,48.67
2023-04-30T09:38:30.853Z,48.10
2023-04-30T09:41:03.655Z,49.73
2023-04-30T09:43:46.106Z,49.57
2023-04-30T09:46:22.722Z,48.41
2023-04-30T09:48:59.987Z,49.81
2023-04-30T09:51:35.341Z,47.61
2023-04-30T09:54:11.647Z,45.74
2023-04-30T09:56:44.619Z,47.70
2023-04-30T09:59:19.366Z,51.69
2023-04-30T10:01:54.116Z,48.77
2023-04-30T10:04:33.541Z,51.81
2023-04-30T10:07:13.400Z,45.45
2023-04-30T10:09:51.305Z,46.79
2023-04-30T10:12:28.381Z,46.84
2023-04-30T10:15:10.984Z,47.08
2023-04-30T10:17:51.285Z,45.50
2023-04-30T10:20:27.484Z,45.98
2023-04-30T10:23:01.522Z,47.27
2023-04-30T10:25:35.117Z,45.54
2023-04-30T10:28:09.231Z,45.87
2023-04-30T10:30:42.777Z,46.25
2023-04-30T10:33:34.318Z,46.57
2023-04-30T10:36:15.867Z,46.91
2023-04-30T10:38:50.814Z,49.12
2023-04-30T10:41:23.769Z,47.18
2023-04-30T10:44:01.821Z,47.43
2023-04-30T10:46:36.877Z,45.28
2023-04-30T10:49:14.641Z,43.70
2023-04-30T10:51:51.022Z,46.30
2023-04-30T10:54:30.190Z,45.13
2023-04-30T10:57:35.491Z,39.88
2023-04-30T11:00:25.727Z,41.18
2023-04-30T11:03:00.859Z,43.51
2023-04-30T11:08:38.533Z,37.04
2023-04-30T11:11:18.494Z,41.33
2023-04-30T11:14:04.258Z,40.44
2023-04-30T11:16:39.563Z,37.23
2023-04-30T11:19:14.403Z,33.25
2023-04-30T11:22:16.874Z,44.13
2023-04-30T11:25:09.698Z,39.46
2023-04-30T11:27:45.193Z,36.34
2023-04-30T11:30:19.730Z,36.25
2023-04-30T11:32:57.874Z,38.23
2023-04-30T11:35:31.100Z,36.72
2023-04-30T11:38:07.223Z,37.48
2023-04-30T11:40:42.215Z,38.68
2023-04-30T11:43:26.575Z,37.53
2023-04-30T11:46:01.728Z,35.71
2023-04-30T11:48:35.352Z,42.01
2023-04-30T11:51:16.553Z,35.35
2023-04-30T11:53:50.704Z,36.38
2023-04-30T11:56:27.621Z,35.44
2023-04-30T11:59:03.344Z,35.21
2023-04-30T12:01:37.291Z,34.78
2023-04-30T12:04:11.175Z,33.02
2023-04-30T12:06:44.369Z,32.72
2023-04-30T12:09:17.412Z,32.75
2023-04-30T12:11:51.653Z,34.25
2023-04-30T12:14:26.476Z,35.37
2023-04-30T12:17:07.092Z,33.08
2023-04-30T12:19:42.444Z,35.60
2023-04-30T12:22:17.682Z,32.23
2023-04-30T12:24:50.849Z,32.10
2023-04-30T12:27:25.059Z,35.24
2023-04-30T12:29:57.850Z,33.42
2023-04-30T12:32:30.973Z,34.02
2023-04-30T12:35:05.031Z,32.83
2023-04-30T12:37:43.202Z,32.26
2023-04-30T12:40:16.145Z,33.30
2023-04-30T12:42:54.024Z,32.64
2023-04-30T12:45:51.709Z,34.01
2023-04-30T12:48:25.904Z,32.76
2023-04-30T12:51:01.225Z,31.33
2023-04-30T12:53:34.173Z,29.89
2023-04-30T12:56:12.157Z,31.79
2023-04-30T12:58:51.108Z,33.26
2023-04-30T13:01:25.394Z,35.54
2023-04-30T13:03:59.848Z,39.39
2023-04-30T13:06:33.291Z,39.52
2023-04-30T13:09:06.235Z,40.63
2023-04-30T13:11:39.379Z,44.86
2023-04-30T13:14:13.641Z,40.87
2023-04-30T13:16:46.505Z,39.51
2023-04-30T13:19:21.450Z,39.91
2023-04-30T13:21:56.881Z,41.10
2023-04-30T13:24:31.183Z,41.50
2023-04-30T13:27:04.030Z,45.96
2023-04-30T13:29:38.305Z,41.94
2023-04-30T13:32:11.452Z,46.65
2023-04-30T13:34:44.917Z,41.26
2023-04-30T13:37:17.769Z,35.21
2023-04-30T13:39:50.791Z,36.33
2023-04-30T13:42:30.609Z,33.02
2023-04-30T13:45:12.836Z,35.51
2023-04-30T13:51:17.918Z,36.00
2023-04-30T13:53:51.070Z,43.16
2023-04-30T13:56:23.787Z,41.81
2023-04-30T13:58:56.538Z,43.52
2023-04-30T14:01:32.806Z,45.00
2023-04-30T14:04:09.231Z,43.16
2023-04-30T14:06:42.848Z,46.29
2023-04-30T14:09:20.260Z,44.38
2023-04-30T14:11:53.145Z,43.85
2023-04-30T14:14:27.511Z,46.88
2023-04-30T14:17:02.377Z,45.52
2023-04-30T14:19:35.157Z,43.81
2023-04-30T14:22:07.708Z,45.90
2023-04-30T14:24:40.822Z,45.75
2023-04-30T14:27:13.962Z,47.39
2023-04-30T14:29:46.720Z,45.55
2023-04-30T14:32:21.250Z,45.25
2023-04-30T14:34:55.532Z,45.05
2023-04-30T14:37:28.692Z,45.50
2023-04-30T14:40:02.018Z,46.16
2023-04-30T14:42:35.013Z,44.43
2023-04-30T14:45:09.572Z,45.64
2023-04-30T14:47:43.983Z,45.22
2023-04-30T14:50:21.514Z,44.00
2023-04-30T14:52:57.435Z,44.89
2023-04-30T14:55:30.300Z,43.51
2023-04-30T14:58:03.229Z,43.86
2023-04-30T15:00:36.428Z,42.58
2023-04-30T15:03:10.704Z,44.26
2023-04-30T15:05:43.913Z,43.19
2023-04-30T15:08:18.888Z,44.08
2023-04-30T15:10:51.611Z,45.96
2023-04-30T15:13:25.679Z,44.24
2023-04-30T15:15:58.543Z,44.38
2023-04-30T15:18:36.287Z,43.62
2023-04-30T15:21:09.510Z,42.84
2023-04-30T15:23:49.663Z,44.67
2023-04-30T15:26:22.768Z,44.06
2023-04-30T15:28:56.700Z,43.36
2023-04-30T15:31:30.768Z,42.96
2023-04-30T15:34:05.693Z,41.00
2023-04-30T15:36:38.620Z,43.96
2023-04-30T15:39:12.069Z,42.79
2023-04-30T15:41:48.071Z,43.76
2023-04-30T15:44:21.146Z,42.60
2023-04-30T15:47:02.538Z,43.31
2023-04-30T15:49:37.102Z,41.75
2023-04-30T15:52:16.077Z,42.89
2023-04-30T15:54:54.566Z,42.19
2023-04-30T15:57:33.779Z,42.68
2023-04-30T16:00:17.666Z,41.92
2023-04-30T16:02:50.878Z,42.17
2023-04-30T16:05:29.560Z,42.85
2023-04-30T16:08:14.427Z,41.87
2023-04-30T16:10:52.879Z,42.29
2023-04-30T16:13:27.474Z,41.70
2023-04-30T16:16:02.359Z,41.54
2023-04-30T16:18:37.366Z,41.57
2023-04-30T16:21:12.180Z,42.41
2023-04-30T16:23:47.768Z,42.06
2023-04-30T16:26:27.956Z,41.98
2023-04-30T16:29:03.010Z,42.18
2023-04-30T16:31:39.092Z,42.27
2023-04-30T16:34:15.003Z,42.13
2023-04-30T16:36:49.923Z,42.67
2023-04-30T16:43:49.817Z,40.57
2023-04-30T16:46:35.169Z,41.02
2023-04-30T16:49:12.288Z,42.04
2023-04-30T16:52:18.138Z,41.42
2023-04-30T16:54:54.512Z,41.71
2023-04-30T16:58:18.807Z,40.74
2023-04-30T17:00:43.377Z,41.34
2023-04-30T17:03:22.099Z,41.84
2023-04-30T17:05:55.717Z,40.87
2023-04-30T17:08:31.973Z,41.17
2023-04-30T17:11:06.366Z,41.35
2023-04-30T17:13:46.228Z,41.20
2023-04-30T17:16:25.276Z,41.40
2023-04-30T17:19:25.140Z,42.18
2023-04-30T17:22:01.894Z,41.88
2023-04-30T17:24:40.347Z,42.19
2023-04-30T17:27:13.611Z,42.03
2023-04-30T17:29:46.555Z,42.08
2023-04-30T17:32:19.510Z,42.03
2023-04-30T17:34:52.342Z,41.83
2023-04-30T17:37:25.310Z,41.99
2023-04-30T17:40:03.171Z,42.31
2023-04-30T17:42:35.997Z,42.25
2023-04-30T17:45:09.416Z,42.30
2023-04-30T17:47:42.210Z,42.03
2023-04-30T17:50:15.001Z,42.38
2023-04-30T17:52:48.216Z,42.03
2023-04-30T17:55:23.732Z,42.35
2023-04-30T17:57:59.291Z,42.65
2023-04-30T18:00:32.365Z,42.89
2023-04-30T18:03:06.460Z,42.67
2023-04-30T18:05:39.986Z,42.77
2023-04-30T18:08:12.932Z,43.15
2023-04-30T18:10:48.697Z,43.34
2023-04-30T18:13:21.651Z,43.37
2023-04-30T18:15:54.741Z,43.39
2023-04-30T18:18:27.911Z,43.90
2023-04-30T18:21:01.361Z,43.48
2023-04-30T18:23:34.572Z,43.57
2023-04-30T18:26:09.452Z,43.61
2023-04-30T18:28:43.044Z,44.02
2023-04-30T18:31:56.766Z,43.78
2023-04-30T18:40:49.742Z,44.13
2023-04-30T18:43:24.521Z,44.05
2023-04-30T18:45:57.694Z,43.65
2023-04-30T18:48:30.716Z,43.81
2023-04-30T18:51:03.862Z,43.94
2023-04-30T18:53:37.214Z,43.77
2023-04-30T18:56:11.920Z,44.48
2023-04-30T18:58:47.713Z,44.41
2023-04-30T19:01:21.752Z,44.68
2023-04-30T19:03:54.875Z,44.47
2023-04-30T19:06:28.419Z,44.59
2023-04-30T19:09:01.544Z,44.64
2023-04-30T19:11:37.955Z,45.00
2023-04-30T19:14:12.376Z,44.62
2023-04-30T19:21:15.136Z,46.05
2023-04-30T19:23:48.602Z,46.16
2023-04-30T19:26:22.724Z,46.49
2023-04-30T19:28:55.645Z,46.49
2023-04-30T19:31:32.188Z,46.64
2023-04-30T19:34:13.860Z,46.63
2023-04-30T19:36:47.630Z,47.02
2023-04-30T19:39:23.030Z,46.99
2023-04-30T19:42:01.623Z,47.25
2023-04-30T19:44:34.881Z,47.44
2023-04-30T19:47:25.227Z,47.38
2023-04-30T19:49:58.495Z,47.98
2023-04-30T19:52:36.635Z,47.58
2023-04-30T19:55:13.050Z,47.50
2023-04-30T19:57:46.286Z,47.82
2023-04-30T20:00:19.223Z,47.98
2023-04-30T20:03:04.617Z,47.74
2023-04-30T20:05:40.934Z,47.89
2023-04-30T20:08:17.033Z,47.99
2023-04-30T20:10:53.150Z,48.29
2023-04-30T20:13:27.126Z,48.10
2023-04-30T20:16:00.503Z,48.61
2023-04-30T20:39:32.307Z,49.23
2023-04-30T20:42:06.077Z,49.12
2023-04-30T20:44:43.950Z,49.01
2023-04-30T20:47:17.009Z,49.40
2023-04-30T20:49:49.990Z,49.61
2023-04-30T20:52:26.765Z,49.19
2023-04-30T20:55:25.017Z,50.27
2023-04-30T20:58:03.963Z,49.50
2023-04-30T21:00:37.846Z,49.85
2023-04-30T21:03:11.374Z,49.42
2023-04-30T21:05:44.617Z,49.60
2023-04-30T21:08:17.783Z,49.42
2023-04-30T21:10:53.322Z,49.60
2023-04-30T21:13:26.569Z,49.69
2023-04-30T21:16:00.782Z,50.17
2023-04-30T21:18:34.055Z,49.90
2023-04-30T21:21:07.373Z,49.99
2023-04-30T21:23:41.430Z,50.40
2023-04-30T21:26:16.762Z,50.36
2023-04-30T21:28:52.742Z,49.90
2023-04-30T21:31:27.425Z,50.31
2023-04-30T21:34:03.903Z,50.40
2023-04-30T21:36:37.619Z,50.36
2023-04-30T21:42:32.846Z,50.70
2023-04-30T21:45:10.322Z,51.12
2023-04-30T21:47:44.781Z,50.81
2023-04-30T21:50:18.645Z,51.26
2023-04-30T21:52:52.105Z,50.80
2023-04-30T21:55:26.738Z,50.54
2023-04-30T21:58:02.226Z,51.54
2023-04-30T22:00:36.041Z,51.03
2023-04-30T22:03:10.553Z,50.93
2023-04-30T22:05:43.593Z,51.25
2023-04-30T22:08:16.882Z,51.30
2023-04-30T22:10:50.537Z,51.45
2023-04-30T22:13:26.866Z,51.10
2023-04-30T22:16:00.474Z,51.13
2023-04-30T22:18:35.616Z,51.04
2023-04-30T22:21:13.411Z,51.46
2023-04-30T22:23:47.457Z,51.82
2023-04-30T22:26:20.219Z,52.00
2023-04-30T22:28:55.027Z,51.83
2023-04-30T22:32:30.715Z,51.40
2023-04-30T22:35:08.567Z,51.55
2023-04-30T22:38:21.590Z,51.39
2023-04-30T22:41:08.578Z,51.89
2023-04-30T22:44:00.916Z,51.89
2023-04-30T22:46:40.866Z,51.64
2023-04-30T22:52:10.812Z,52.54
2023-04-30T22:57:37.819Z,52.49
2023-04-30T23:00:16.194Z,52.29
2023-04-30T23:02:50.801Z,52.68
2023-04-30T23:05:26.907Z,53.11
2023-04-30T23:08:05.440Z,52.67
2023-04-30T23:10:38.707Z,52.50
2023-04-30T23:13:11.857Z,52.55
2023-04-30T23:15:45.483Z,52.42
2023-04-30T23:18:21.498Z,52.49
2023-04-30T23:20:55.988Z,52.64
2023-04-30T23:23:29.088Z,53.13
2023-04-30T23:26:01.922Z,52.42
2023-04-30T23:28:36.893Z,52.98
2023-04-30T23:31:10.096Z,52.81
2023-04-30T23:33:44.660Z,52.44
2023-04-30T23:36:17.702Z,52.56
2023-04-30T23:38:51.571Z,52.83
2023-04-30T23:41:26.279Z,52.55
2023-04-30T23:43:59.216Z,52.60
2023-04-30T23:46:32.294Z,52.62
2023-04-30T23:49:07.060Z,52.76
2023-04-30T23:51:40.056Z,52.62
2023-04-30T23:54:13.367Z,52.72
2023-04-30T23:56:46.347Z,52.70
2023-04-30T23:59:19.015Z,52.72
